sensor_id;sensor_type;location;lat;lon;timestamp;P1;durP1;ratioP1;P2;durP2;ratioP2
22713;SDS011;11524;50.846;4.326;2022-12-05T00:02:08;11.77;;;8.70;;
22713;SDS011;11524;50.846;4.326;2022-12-05T00:04:34;11.13;;;8.48;;
22713;SDS011;11524;50.846;4.326;2022-12-05T00:06:59;11.82;;;9.05;;
22713;SDS011;11524;50.846;4.326;2022-12-05T00:09:25;10.82;;;8.60;;
22713;SDS011;11524;50.846;4.326;2022-12-05T00:11:51;12.25;;;8.63;;
22713;SDS011;11524;50.846;4.326;2022-12-05T00:14:17;10.80;;;8.48;;
22713;SDS011;11524;50.846;4.326;2022-12-05T00:16:42;10.98;;;8.35;;
22713;SDS011;11524;50.846;4.326;2022-12-05T00:19:10;13.23;;;9.25;;
22713;SDS011;11524;50.846;4.326;2022-12-05T00:21:38;13.20;;;9.00;;
22713;SDS011;11524;50.846;4.326;2022-12-05T00:24:04;14.85;;;9.45;;
22713;SDS011;11524;50.846;4.326;2022-12-05T00:26:31;13.35;;;9.80;;
22713;SDS011;11524;50.846;4.326;2022-12-05T00:28:58;12.23;;;8.85;;
22713;SDS011;11524;50.846;4.326;2022-12-05T00:31:24;14.98;;;8.95;;
22713;SDS011;11524;50.846;4.326;2022-12-05T00:33:51;11.68;;;8.88;;
22713;SDS011;11524;50.846;4.326;2022-12-05T00:36:19;11.75;;;8.70;;
22713;SDS011;11524;50.846;4.326;2022-12-05T00:38:46;11.68;;;8.82;;
22713;SDS011;11524;50.846;4.326;2022-12-05T00:41:13;11.05;;;8.35;;
22713;SDS011;11524;50.846;4.326;2022-12-05T00:43:40;11.55;;;8.07;;
22713;SDS011;11524;50.846;4.326;2022-12-05T00:46:07;11.63;;;8.52;;
22713;SDS011;11524;50.846;4.326;2022-12-05T00:48:35;12.30;;;8.85;;
22713;SDS011;11524;50.846;4.326;2022-12-05T00:53:52;11.43;;;8.43;;
22713;SDS011;11524;50.846;4.326;2022-12-05T00:56:20;11.38;;;8.57;;
22713;SDS011;11524;50.846;4.326;2022-12-05T00:58:48;12.30;;;8.50;;
22713;SDS011;11524;50.846;4.326;2022-12-05T01:03:44;11.32;;;8.52;;
22713;SDS011;11524;50.846;4.326;2022-12-05T01:06:11;12.10;;;8.13;;
22713;SDS011;11524;50.846;4.326;2022-12-05T01:08:38;12.25;;;8.55;;
22713;SDS011;11524;50.846;4.326;2022-12-05T01:11:05;10.73;;;8.27;;
22713;SDS011;11524;50.846;4.326;2022-12-05T01:13:31;11.50;;;8.15;;
22713;SDS011;11524;50.846;4.326;2022-12-05T01:15:57;10.77;;;8.10;;
22713;SDS011;11524;50.846;4.326;2022-12-05T01:18:23;12.00;;;9.00;;
22713;SDS011;11524;50.846;4.326;2022-12-05T01:20:50;9.88;;;7.30;;
22713;SDS011;11524;50.846;4.326;2022-12-05T01:23:16;9.63;;;7.75;;
22713;SDS011;11524;50.846;4.326;2022-12-05T01:25:42;11.68;;;8.32;;
22713;SDS011;11524;50.846;4.326;2022-12-05T01:28:09;9.48;;;7.78;;
22713;SDS011;11524;50.846;4.326;2022-12-05T01:30:36;10.40;;;8.40;;
22713;SDS011;11524;50.846;4.326;2022-12-05T01:33:03;11.38;;;8.07;;
22713;SDS011;11524;50.846;4.326;2022-12-05T01:35:30;10.27;;;7.90;;
22713;SDS011;11524;50.846;4.326;2022-12-05T01:37:57;10.85;;;8.15;;
22713;SDS011;11524;50.846;4.326;2022-12-05T01:40:22;11.05;;;8.18;;
22713;SDS011;11524;50.846;4.326;2022-12-05T01:42:48;10.35;;;7.63;;
22713;SDS011;11524;50.846;4.326;2022-12-05T01:45:15;12.63;;;8.50;;
22713;SDS011;11524;50.846;4.326;2022-12-05T01:47:45;12.05;;;9.25;;
22713;SDS011;11524;50.846;4.326;2022-12-05T01:50:11;13.40;;;8.80;;
22713;SDS011;11524;50.846;4.326;2022-12-05T01:52:37;11.27;;;8.15;;
22713;SDS011;11524;50.846;4.326;2022-12-05T01:55:06;13.50;;;8.77;;
22713;SDS011;11524;50.846;4.326;2022-12-05T01:57:35;10.85;;;8.27;;
22713;SDS011;11524;50.846;4.326;2022-12-05T02:00:13;13.35;;;8.93;;
22713;SDS011;11524;50.846;4.326;2022-12-05T02:02:43;12.00;;;8.85;;
22713;SDS011;11524;50.846;4.326;2022-12-05T02:05:16;13.98;;;10.18;;
22713;SDS011;11524;50.846;4.326;2022-12-05T02:07:44;14.50;;;10.00;;
22713;SDS011;11524;50.846;4.326;2022-12-05T02:10:11;13.43;;;9.32;;
22713;SDS011;11524;50.846;4.326;2022-12-05T02:12:38;17.10;;;10.55;;
22713;SDS011;11524;50.846;4.326;2022-12-05T02:18:07;15.05;;;9.52;;
22713;SDS011;11524;50.846;4.326;2022-12-05T02:32:31;14.98;;;10.40;;
22713;SDS011;11524;50.846;4.326;2022-12-05T02:35:20;16.17;;;11.10;;
22713;SDS011;11524;50.846;4.326;2022-12-05T02:37:54;14.60;;;10.18;;
22713;SDS011;11524;50.846;4.326;2022-12-05T02:40:23;15.15;;;10.32;;
22713;SDS011;11524;50.846;4.326;2022-12-05T02:43:01;13.55;;;9.63;;
22713;SDS011;11524;50.846;4.326;2022-12-05T02:45:42;16.10;;;11.38;;
22713;SDS011;11524;50.846;4.326;2022-12-05T02:48:09;16.65;;;11.15;;
22713;SDS011;11524;50.846;4.326;2022-12-05T02:50:38;16.70;;;11.25;;
22713;SDS011;11524;50.846;4.326;2022-12-05T02:53:07;16.25;;;10.23;;
22713;SDS011;11524;50.846;4.326;2022-12-05T02:55:36;17.88;;;11.02;;
22713;SDS011;11524;50.846;4.326;2022-12-05T02:58:05;15.55;;;10.27;;
22713;SDS011;11524;50.846;4.326;2022-12-05T03:00:35;16.67;;;11.07;;
22713;SDS011;11524;50.846;4.326;2022-12-05T03:03:05;16.80;;;11.43;;
22713;SDS011;11524;50.846;4.326;2022-12-05T03:08:21;17.48;;;10.88;;
22713;SDS011;11524;50.846;4.326;2022-12-05T03:10:49;16.08;;;9.73;;
22713;SDS011;11524;50.846;4.326;2022-12-05T03:13:19;16.27;;;10.55;;
22713;SDS011;11524;50.846;4.326;2022-12-05T03:15:52;16.42;;;10.63;;
22713;SDS011;11524;50.846;4.326;2022-12-05T03:18:34;16.65;;;11.15;;
22713;SDS011;11524;50.846;4.326;2022-12-05T03:21:10;19.42;;;11.77;;
22713;SDS011;11524;50.846;4.326;2022-12-05T03:23:46;15.32;;;10.23;;
22713;SDS011;11524;50.846;4.326;2022-12-05T03:29:18;16.98;;;10.05;;
22713;SDS011;11524;50.846;4.326;2022-12-05T03:31:54;16.90;;;11.35;;
22713;SDS011;11524;50.846;4.326;2022-12-05T03:34:26;17.67;;;12.00;;
22713;SDS011;11524;50.846;4.326;2022-12-05T03:37:10;17.17;;;11.18;;
22713;SDS011;11524;50.846;4.326;2022-12-05T03:39:44;18.80;;;12.13;;
22713;SDS011;11524;50.846;4.326;2022-12-05T03:47:53;17.23;;;10.57;;
22713;SDS011;11524;50.846;4.326;2022-12-05T03:50:31;18.30;;;11.13;;
22713;SDS011;11524;50.846;4.326;2022-12-05T03:53:06;19.10;;;12.13;;
22713;SDS011;11524;50.846;4.326;2022-12-05T03:55:36;15.73;;;10.60;;
22713;SDS011;11524;50.846;4.326;2022-12-05T03:58:08;15.63;;;10.32;;
22713;SDS011;11524;50.846;4.326;2022-12-05T04:00:38;16.50;;;10.85;;
22713;SDS011;11524;50.846;4.326;2022-12-05T04:03:08;16.80;;;10.90;;
22713;SDS011;11524;50.846;4.326;2022-12-05T04:05:51;15.85;;;11.15;;
22713;SDS011;11524;50.846;4.326;2022-12-05T04:08:37;16.02;;;10.18;;
22713;SDS011;11524;50.846;4.326;2022-12-05T04:11:06;17.33;;;11.18;;
22713;SDS011;11524;50.846;4.326;2022-12-05T04:13:40;17.30;;;11.70;;
22713;SDS011;11524;50.846;4.326;2022-12-05T04:16:28;17.50;;;11.48;;
22713;SDS011;11524;50.846;4.326;2022-12-05T04:19:17;15.10;;;11.00;;
22713;SDS011;11524;50.846;4.326;2022-12-05T04:21:53;17.52;;;10.75;;
22713;SDS011;11524;50.846;4.326;2022-12-05T04:24:21;15.25;;;10.52;;
22713;SDS011;11524;50.846;4.326;2022-12-05T04:27:28;17.40;;;11.60;;
22713;SDS011;11524;50.846;4.326;2022-12-05T04:30:07;15.25;;;10.75;;
22713;SDS011;11524;50.846;4.326;2022-12-05T04:32:36;16.80;;;10.65;;
22713;SDS011;11524;50.846;4.326;2022-12-05T04:35:21;16.08;;;9.88;;
22713;SDS011;11524;50.846;4.326;2022-12-05T04:37:51;17.98;;;11.32;;
22713;SDS011;11524;50.846;4.326;2022-12-05T04:40:25;17.13;;;10.93;;
22713;SDS011;11524;50.846;4.326;2022-12-05T04:42:55;15.75;;;10.95;;
22713;SDS011;11524;50.846;4.326;2022-12-05T04:45:25;16.77;;;10.73;;
22713;SDS011;11524;50.846;4.326;2022-12-05T04:47:56;15.30;;;10.05;;
22713;SDS011;11524;50.846;4.326;2022-12-05T04:50:23;14.80;;;9.93;;
22713;SDS011;11524;50.846;4.326;2022-12-05T04:52:53;13.82;;;9.75;;
22713;SDS011;11524;50.846;4.326;2022-12-05T04:55:22;13.75;;;9.57;;
22713;SDS011;11524;50.846;4.326;2022-12-05T04:58:01;17.10;;;10.27;;
22713;SDS011;11524;50.846;4.326;2022-12-05T05:00:34;14.57;;;10.07;;
22713;SDS011;11524;50.846;4.326;2022-12-05T05:03:12;14.32;;;10.07;;
22713;SDS011;11524;50.846;4.326;2022-12-05T05:05:46;15.35;;;10.27;;
22713;SDS011;11524;50.846;4.326;2022-12-05T05:08:15;15.98;;;9.95;;
22713;SDS011;11524;50.846;4.326;2022-12-05T05:10:51;15.35;;;10.85;;
22713;SDS011;11524;50.846;4.326;2022-12-05T05:13:30;14.98;;;10.20;;
22713;SDS011;11524;50.846;4.326;2022-12-05T05:15:56;14.95;;;10.68;;
22713;SDS011;11524;50.846;4.326;2022-12-05T05:18:21;13.90;;;9.85;;
22713;SDS011;11524;50.846;4.326;2022-12-05T05:20:47;13.50;;;9.40;;
22713;SDS011;11524;50.846;4.326;2022-12-05T05:23:13;16.08;;;10.98;;
22713;SDS011;11524;50.846;4.326;2022-12-05T05:25:40;15.02;;;10.50;;
22713;SDS011;11524;50.846;4.326;2022-12-05T05:28:05;14.63;;;10.02;;
22713;SDS011;11524;50.846;4.326;2022-12-05T05:30:31;15.18;;;9.93;;
22713;SDS011;11524;50.846;4.326;2022-12-05T05:32:57;18.33;;;10.82;;
22713;SDS011;11524;50.846;4.326;2022-12-05T05:35:24;17.25;;;11.57;;
22713;SDS011;11524;50.846;4.326;2022-12-05T05:37:49;17.40;;;10.13;;
22713;SDS011;11524;50.846;4.326;2022-12-05T05:40:15;15.52;;;11.15;;
22713;SDS011;11524;50.846;4.326;2022-12-05T05:42:42;15.82;;;10.57;;
22713;SDS011;11524;50.846;4.326;2022-12-05T05:45:09;14.88;;;10.43;;
22713;SDS011;11524;50.846;4.326;2022-12-05T05:47:35;16.83;;;11.88;;
22713;SDS011;11524;50.846;4.326;2022-12-05T05:50:02;15.57;;;10.30;;
22713;SDS011;11524;50.846;4.326;2022-12-05T05:52:28;16.65;;;10.35;;
22713;SDS011;11524;50.846;4.326;2022-12-05T05:54:56;14.57;;;10.38;;
22713;SDS011;11524;50.846;4.326;2022-12-05T05:57:21;14.65;;;10.35;;
22713;SDS011;11524;50.846;4.326;2022-12-05T05:59:47;15.80;;;10.88;;
22713;SDS011;11524;50.846;4.326;2022-12-05T06:02:12;14.10;;;9.95;;
22713;SDS011;11524;50.846;4.326;2022-12-05T06:04:38;16.60;;;10.75;;
22713;SDS011;11524;50.846;4.326;2022-12-05T06:07:03;17.08;;;11.30;;
22713;SDS011;11524;50.846;4.326;2022-12-05T06:09:29;17.27;;;10.60;;
22713;SDS011;11524;50.846;4.326;2022-12-05T06:11:54;16.35;;;10.65;;
22713;SDS011;11524;50.846;4.326;2022-12-05T06:14:20;15.65;;;10.73;;
22713;SDS011;11524;50.846;4.326;2022-12-05T06:16:45;17.88;;;10.68;;
22713;SDS011;11524;50.846;4.326;2022-12-05T06:19:11;14.25;;;10.23;;
22713;SDS011;11524;50.846;4.326;2022-12-05T06:21:36;16.98;;;11.57;;
22713;SDS011;11524;50.846;4.326;2022-12-05T06:24:02;17.77;;;10.75;;
22713;SDS011;11524;50.846;4.326;2022-12-05T06:26:28;15.55;;;11.10;;
22713;SDS011;11524;50.846;4.326;2022-12-05T06:28:53;14.30;;;10.23;;
22713;SDS011;11524;50.846;4.326;2022-12-05T06:31:20;17.55;;;11.35;;
22713;SDS011;11524;50.846;4.326;2022-12-05T06:33:47;15.32;;;10.18;;
22713;SDS011;11524;50.846;4.326;2022-12-05T06:36:14;16.88;;;10.82;;
22713;SDS011;11524;50.846;4.326;2022-12-05T06:38:42;18.40;;;11.95;;
22713;SDS011;11524;50.846;4.326;2022-12-05T06:41:11;19.50;;;11.98;;
22713;SDS011;11524;50.846;4.326;2022-12-05T06:43:39;20.63;;;12.68;;
22713;SDS011;11524;50.846;4.326;2022-12-05T06:46:06;18.90;;;12.25;;
22713;SDS011;11524;50.846;4.326;2022-12-05T06:48:33;20.27;;;11.90;;
22713;SDS011;11524;50.846;4.326;2022-12-05T06:50:58;19.20;;;12.07;;
22713;SDS011;11524;50.846;4.326;2022-12-05T06:53:24;19.23;;;12.63;;
22713;SDS011;11524;50.846;4.326;2022-12-05T06:55:54;19.85;;;11.55;;
22713;SDS011;11524;50.846;4.326;2022-12-05T06:58:20;18.60;;;12.63;;
22713;SDS011;11524;50.846;4.326;2022-12-05T07:00:46;18.90;;;12.80;;
22713;SDS011;11524;50.846;4.326;2022-12-05T07:03:30;18.90;;;13.32;;
22713;SDS011;11524;50.846;4.326;2022-12-05T07:05:58;18.90;;;12.95;;
22713;SDS011;11524;50.846;4.326;2022-12-05T07:08:25;19.20;;;12.88;;
22713;SDS011;11524;50.846;4.326;2022-12-05T07:10:51;19.67;;;13.43;;
22713;SDS011;11524;50.846;4.326;2022-12-05T07:13:17;21.92;;;13.68;;
22713;SDS011;11524;50.846;4.326;2022-12-05T07:15:44;21.52;;;13.40;;
22713;SDS011;11524;50.846;4.326;2022-12-05T07:18:12;21.15;;;14.55;;
22713;SDS011;11524;50.846;4.326;2022-12-05T07:20:38;24.90;;;13.63;;
22713;SDS011;11524;50.846;4.326;2022-12-05T07:23:04;21.35;;;13.65;;
22713;SDS011;11524;50.846;4.326;2022-12-05T07:25:29;20.30;;;13.23;;
22713;SDS011;11524;50.846;4.326;2022-12-05T07:27:55;19.67;;;13.18;;
22713;SDS011;11524;50.846;4.326;2022-12-05T07:30:20;20.75;;;14.32;;
22713;SDS011;11524;50.846;4.326;2022-12-05T07:32:46;20.15;;;13.50;;
22713;SDS011;11524;50.846;4.326;2022-12-05T07:35:12;19.15;;;13.48;;
22713;SDS011;11524;50.846;4.326;2022-12-05T07:37:37;20.63;;;14.63;;
22713;SDS011;11524;50.846;4.326;2022-12-05T07:40:03;21.17;;;14.05;;
22713;SDS011;11524;50.846;4.326;2022-12-05T07:42:29;20.17;;;13.20;;
22713;SDS011;11524;50.846;4.326;2022-12-05T07:44:55;19.88;;;13.13;;
22713;SDS011;11524;50.846;4.326;2022-12-05T07:47:20;23.10;;;15.20;;
22713;SDS011;11524;50.846;4.326;2022-12-05T07:49:46;20.95;;;13.65;;
22713;SDS011;11524;50.846;4.326;2022-12-05T07:52:11;23.80;;;14.70;;
22713;SDS011;11524;50.846;4.326;2022-12-05T07:54:37;20.90;;;13.40;;
22713;SDS011;11524;50.846;4.326;2022-12-05T07:57:02;20.98;;;13.32;;
22713;SDS011;11524;50.846;4.326;2022-12-05T07:59:28;19.13;;;13.48;;
22713;SDS011;11524;50.846;4.326;2022-12-05T08:01:54;21.60;;;14.13;;
22713;SDS011;11524;50.846;4.326;2022-12-05T08:04:19;20.10;;;13.48;;
22713;SDS011;11524;50.846;4.326;2022-12-05T08:06:45;19.98;;;13.32;;
22713;SDS011;11524;50.846;4.326;2022-12-05T08:09:11;18.73;;;13.02;;
22713;SDS011;11524;50.846;4.326;2022-12-05T08:11:36;19.27;;;12.98;;
22713;SDS011;11524;50.846;4.326;2022-12-05T08:14:03;19.20;;;13.77;;
22713;SDS011;11524;50.846;4.326;2022-12-05T08:16:29;21.42;;;13.00;;
22713;SDS011;11524;50.846;4.326;2022-12-05T08:19:00;19.70;;;13.13;;
22713;SDS011;11524;50.846;4.326;2022-12-05T08:21:27;17.25;;;13.07;;
22713;SDS011;11524;50.846;4.326;2022-12-05T08:23:53;16.85;;;12.15;;
22713;SDS011;11524;50.846;4.326;2022-12-05T08:26:20;18.88;;;13.20;;
22713;SDS011;11524;50.846;4.326;2022-12-05T08:28:55;16.85;;;12.27;;
22713;SDS011;11524;50.846;4.326;2022-12-05T08:31:23;19.60;;;13.15;;
22713;SDS011;11524;50.846;4.326;2022-12-05T08:33:50;19.70;;;13.63;;
22713;SDS011;11524;50.846;4.326;2022-12-05T08:36:16;19.02;;;12.30;;
22713;SDS011;11524;50.846;4.326;2022-12-05T08:38:43;16.88;;;12.00;;
22713;SDS011;11524;50.846;4.326;2022-12-05T08:41:10;18.05;;;12.13;;
22713;SDS011;11524;50.846;4.326;2022-12-05T08:43:40;17.27;;;12.40;;
22713;SDS011;11524;50.846;4.326;2022-12-05T08:46:07;16.10;;;12.02;;
22713;SDS011;11524;50.846;4.326;2022-12-05T08:48:33;22.10;;;12.38;;
22713;SDS011;11524;50.846;4.326;2022-12-05T08:51:04;19.13;;;11.52;;
22713;SDS011;11524;50.846;4.326;2022-12-05T08:53:31;16.95;;;12.23;;
22713;SDS011;11524;50.846;4.326;2022-12-05T08:56:03;15.05;;;10.98;;
22713;SDS011;11524;50.846;4.326;2022-12-05T08:58:30;16.13;;;11.73;;
22713;SDS011;11524;50.846;4.326;2022-12-05T09:01:10;15.65;;;11.68;;
22713;SDS011;11524;50.846;4.326;2022-12-05T09:03:40;16.25;;;11.40;;
22713;SDS011;11524;50.846;4.326;2022-12-05T09:08:45;15.50;;;11.32;;
22713;SDS011;11524;50.846;4.326;2022-12-05T09:11:15;16.63;;;11.25;;
22713;SDS011;11524;50.846;4.326;2022-12-05T09:13:42;16.58;;;11.48;;
22713;SDS011;11524;50.846;4.326;2022-12-05T09:16:12;14.32;;;10.75;;
22713;SDS011;11524;50.846;4.326;2022-12-05T09:18:40;16.63;;;10.95;;
22713;SDS011;11524;50.846;4.326;2022-12-05T09:23:33;15.95;;;11.43;;
22713;SDS011;11524;50.846;4.326;2022-12-05T09:25:59;15.35;;;11.15;;
22713;SDS011;11524;50.846;4.326;2022-12-05T09:28:29;12.82;;;9.88;;
22713;SDS011;11524;50.846;4.326;2022-12-05T09:30:56;15.25;;;11.32;;
22713;SDS011;11524;50.846;4.326;2022-12-05T09:33:27;16.27;;;10.23;;
22713;SDS011;11524;50.846;4.326;2022-12-05T09:35:54;14.98;;;10.77;;
22713;SDS011;11524;50.846;4.326;2022-12-05T09:38:19;13.98;;;10.00;;
22713;SDS011;11524;50.846;4.326;2022-12-05T09:40:45;13.18;;;10.27;;
22713;SDS011;11524;50.846;4.326;2022-12-05T09:43:44;14.10;;;10.23;;
22713;SDS011;11524;50.846;4.326;2022-12-05T09:48:59;12.77;;;9.68;;
22713;SDS011;11524;50.846;4.326;2022-12-05T09:51:29;12.52;;;9.38;;
22713;SDS011;11524;50.846;4.326;2022-12-05T09:53:56;13.10;;;9.70;;
22713;SDS011;11524;50.846;4.326;2022-12-05T09:56:26;13.63;;;9.77;;
22713;SDS011;11524;50.846;4.326;2022-12-05T09:58:53;12.95;;;9.60;;
22713;SDS011;11524;50.846;4.326;2022-12-05T10:15:33;12.97;;;9.23;;
22713;SDS011;11524;50.846;4.326;2022-12-05T10:21:14;18.42;;;11.82;;
22713;SDS011;11524;50.846;4.326;2022-12-05T10:26:31;14.30;;;9.27;;
22713;SDS011;11524;50.846;4.326;2022-12-05T10:29:20;12.90;;;9.00;;
22713;SDS011;11524;50.846;4.326;2022-12-05T10:31:55;10.70;;;8.35;;
22713;SDS011;11524;50.846;4.326;2022-12-05T10:34:38;10.88;;;8.25;;
22713;SDS011;11524;50.846;4.326;2022-12-05T10:37:09;10.98;;;8.40;;
22713;SDS011;11524;50.846;4.326;2022-12-05T10:39:39;10.63;;;7.93;;
22713;SDS011;11524;50.846;4.326;2022-12-05T10:42:05;9.85;;;7.60;;
22713;SDS011;11524;50.846;4.326;2022-12-05T10:44:35;10.30;;;7.90;;
22713;SDS011;11524;50.846;4.326;2022-12-05T10:47:01;9.35;;;8.23;;
22713;SDS011;11524;50.846;4.326;2022-12-05T10:49:27;9.30;;;7.57;;
22713;SDS011;11524;50.846;4.326;2022-12-05T10:51:53;10.65;;;7.97;;
22713;SDS011;11524;50.846;4.326;2022-12-05T10:54:21;14.15;;;9.10;;
22713;SDS011;11524;50.846;4.326;2022-12-05T10:56:51;25.25;;;11.80;;
22713;SDS011;11524;50.846;4.326;2022-12-05T10:59:21;24.17;;;12.38;;
22713;SDS011;11524;50.846;4.326;2022-12-05T11:01:52;28.13;;;13.75;;
22713;SDS011;11524;50.846;4.326;2022-12-05T11:04:25;31.63;;;13.45;;
22713;SDS011;11524;50.846;4.326;2022-12-05T11:07:09;29.40;;;13.98;;
22713;SDS011;11524;50.846;4.326;2022-12-05T11:09:47;22.88;;;12.90;;
22713;SDS011;11524;50.846;4.326;2022-12-05T11:12:20;24.58;;;13.50;;
22713;SDS011;11524;50.846;4.326;2022-12-05T11:17:49;28.85;;;13.63;;
22713;SDS011;11524;50.846;4.326;2022-12-05T11:22:42;29.38;;;12.90;;
22713;SDS011;11524;50.846;4.326;2022-12-05T11:28:00;24.13;;;13.00;;
22713;SDS011;11524;50.846;4.326;2022-12-05T11:31:00;28.52;;;13.32;;
22713;SDS011;11524;50.846;4.326;2022-12-05T11:36:30;24.50;;;13.10;;
22713;SDS011;11524;50.846;4.326;2022-12-05T11:39:05;29.27;;;13.15;;
22713;SDS011;11524;50.846;4.326;2022-12-05T11:41:40;21.70;;;11.95;;
22713;SDS011;11524;50.846;4.326;2022-12-05T11:55:11;25.23;;;11.88;;
22713;SDS011;11524;50.846;4.326;2022-12-05T12:00:24;22.85;;;10.85;;
22713;SDS011;11524;50.846;4.326;2022-12-05T12:08:25;22.20;;;10.75;;
22713;SDS011;11524;50.846;4.326;2022-12-05T12:16:33;18.00;;;10.27;;
22713;SDS011;11524;50.846;4.326;2022-12-05T12:19:05;18.95;;;10.32;;
22713;SDS011;11524;50.846;4.326;2022-12-05T12:29:51;18.48;;;10.18;;
22713;SDS011;11524;50.846;4.326;2022-12-05T12:40:48;16.10;;;9.63;;
22713;SDS011;11524;50.846;4.326;2022-12-05T12:49:00;15.30;;;8.90;;
22713;SDS011;11524;50.846;4.326;2022-12-05T12:51:55;15.30;;;9.05;;
22713;SDS011;11524;50.846;4.326;2022-12-05T13:02:43;14.55;;;8.88;;
22713;SDS011;11524;50.846;4.326;2022-12-05T13:08:06;13.70;;;8.23;;
22713;SDS011;11524;50.846;4.326;2022-12-05T13:10:41;12.75;;;8.25;;
22713;SDS011;11524;50.846;4.326;2022-12-05T13:13:12;16.17;;;9.18;;
22713;SDS011;11524;50.846;4.326;2022-12-05T13:16:06;16.42;;;8.73;;
22713;SDS011;11524;50.846;4.326;2022-12-05T13:18:33;14.25;;;8.60;;
22713;SDS011;11524;50.846;4.326;2022-12-05T13:21:04;15.00;;;8.25;;
22713;SDS011;11524;50.846;4.326;2022-12-05T13:23:33;15.93;;;8.70;;
22713;SDS011;11524;50.846;4.326;2022-12-05T13:26:07;14.10;;;8.52;;
22713;SDS011;11524;50.846;4.326;2022-12-05T13:28:36;15.95;;;9.20;;
22713;SDS011;11524;50.846;4.326;2022-12-05T13:31:35;13.82;;;9.35;;
22713;SDS011;11524;50.846;4.326;2022-12-05T13:34:25;14.18;;;7.75;;
22713;SDS011;11524;50.846;4.326;2022-12-05T13:36:51;13.55;;;8.85;;
22713;SDS011;11524;50.846;4.326;2022-12-05T13:39:36;13.00;;;8.57;;
22713;SDS011;11524;50.846;4.326;2022-12-05T13:42:22;14.40;;;8.77;;
22713;SDS011;11524;50.846;4.326;2022-12-05T13:47:30;13.70;;;9.07;;
22713;SDS011;11524;50.846;4.326;2022-12-05T13:50:13;12.00;;;8.45;;
22713;SDS011;11524;50.846;4.326;2022-12-05T13:52:47;13.68;;;8.07;;
22713;SDS011;11524;50.846;4.326;2022-12-05T13:55:19;16.92;;;9.07;;
22713;SDS011;11524;50.846;4.326;2022-12-05T14:00:44;11.68;;;8.95;;
22713;SDS011;11524;50.846;4.326;2022-12-05T14:03:52;10.90;;;8.23;;
22713;SDS011;11524;50.846;4.326;2022-12-05T14:05:58;12.07;;;8.35;;
22713;SDS011;11524;50.846;4.326;2022-12-05T14:15:48;14.45;;;8.68;;
22713;SDS011;11524;50.846;4.326;2022-12-05T14:18:16;10.30;;;7.45;;
22713;SDS011;11524;50.846;4.326;2022-12-05T14:34:25;15.18;;;8.10;;
22713;SDS011;11524;50.846;4.326;2022-12-05T14:39:49;15.20;;;8.25;;
22713;SDS011;11524;50.846;4.326;2022-12-05T14:42:34;12.38;;;8.15;;
22713;SDS011;11524;50.846;4.326;2022-12-05T14:47:53;14.18;;;8.45;;
22713;SDS011;11524;50.846;4.326;2022-12-05T14:50:30;14.43;;;8.85;;
22713;SDS011;11524;50.846;4.326;2022-12-05T14:55:43;12.93;;;8.38;;
22713;SDS011;11524;50.846;4.326;2022-12-05T14:58:36;13.18;;;8.98;;
22713;SDS011;11524;50.846;4.326;2022-12-05T15:01:13;16.73;;;9.05;;
22713;SDS011;11524;50.846;4.326;2022-12-05T15:03:54;15.05;;;9.10;;
22713;SDS011;11524;50.846;4.326;2022-12-05T15:06:44;13.52;;;9.18;;
22713;SDS011;11524;50.846;4.326;2022-12-05T15:09:36;14.68;;;9.10;;
22713;SDS011;11524;50.846;4.326;2022-12-05T15:12:14;14.85;;;9.45;;
22713;SDS011;11524;50.846;4.326;2022-12-05T15:14:43;13.88;;;8.77;;
22713;SDS011;11524;50.846;4.326;2022-12-05T15:17:35;12.68;;;8.05;;
22713;SDS011;11524;50.846;4.326;2022-12-05T15:20:36;14.43;;;8.60;;
22713;SDS011;11524;50.846;4.326;2022-12-05T15:23:35;12.32;;;8.07;;
22713;SDS011;11524;50.846;4.326;2022-12-05T15:26:01;13.73;;;8.63;;
22713;SDS011;11524;50.846;4.326;2022-12-05T15:28:28;12.05;;;9.32;;
22713;SDS011;11524;50.846;4.326;2022-12-05T15:30:54;12.50;;;9.07;;
22713;SDS011;11524;50.846;4.326;2022-12-05T15:33:21;13.98;;;9.25;;
22713;SDS011;11524;50.846;4.326;2022-12-05T15:35:48;14.80;;;9.18;;
22713;SDS011;11524;50.846;4.326;2022-12-05T15:38:18;12.48;;;8.50;;
22713;SDS011;11524;50.846;4.326;2022-12-05T15:40:52;15.00;;;9.18;;
22713;SDS011;11524;50.846;4.326;2022-12-05T15:46:06;15.85;;;9.95;;
22713;SDS011;11524;50.846;4.326;2022-12-05T15:48:41;14.35;;;9.45;;
22713;SDS011;11524;50.846;4.326;2022-12-05T15:51:06;14.27;;;10.10;;
22713;SDS011;11524;50.846;4.326;2022-12-05T15:53:49;16.20;;;10.65;;
22713;SDS011;11524;50.846;4.326;2022-12-05T15:56:24;15.38;;;11.25;;
22713;SDS011;11524;50.846;4.326;2022-12-05T16:01:37;16.60;;;11.07;;
22713;SDS011;11524;50.846;4.326;2022-12-05T16:09:26;15.07;;;10.32;;
22713;SDS011;11524;50.846;4.326;2022-12-05T16:11:58;14.25;;;10.23;;
22713;SDS011;11524;50.846;4.326;2022-12-05T16:14:30;16.13;;;11.02;;
22713;SDS011;11524;50.846;4.326;2022-12-05T16:17:01;14.77;;;8.60;;
22713;SDS011;11524;50.846;4.326;2022-12-05T16:19:28;9.77;;;7.43;;
22713;SDS011;11524;50.846;4.326;2022-12-05T16:22:05;12.50;;;8.52;;
22713;SDS011;11524;50.846;4.326;2022-12-05T16:24:41;11.77;;;8.18;;
22713;SDS011;11524;50.846;4.326;2022-12-05T16:27:13;13.85;;;8.88;;
22713;SDS011;11524;50.846;4.326;2022-12-05T16:29:41;12.30;;;8.38;;
22713;SDS011;11524;50.846;4.326;2022-12-05T16:32:20;13.93;;;10.75;;
22713;SDS011;11524;50.846;4.326;2022-12-05T16:34:48;12.82;;;8.48;;
22713;SDS011;11524;50.846;4.326;2022-12-05T16:37:16;12.15;;;8.60;;
22713;SDS011;11524;50.846;4.326;2022-12-05T16:39:47;15.90;;;12.15;;
22713;SDS011;11524;50.846;4.326;2022-12-05T16:42:19;18.10;;;13.00;;
22713;SDS011;11524;50.846;4.326;2022-12-05T16:44:56;13.63;;;10.02;;
22713;SDS011;11524;50.846;4.326;2022-12-05T16:50:50;16.13;;;11.50;;
22713;SDS011;11524;50.846;4.326;2022-12-05T16:55:36;15.45;;;11.07;;
22713;SDS011;11524;50.846;4.326;2022-12-05T16:58:03;13.15;;;10.32;;
22713;SDS011;11524;50.846;4.326;2022-12-05T17:00:30;15.48;;;11.52;;
22713;SDS011;11524;50.846;4.326;2022-12-05T17:02:56;14.55;;;11.43;;
22713;SDS011;11524;50.846;4.326;2022-12-05T17:05:22;15.55;;;12.63;;
22713;SDS011;11524;50.846;4.326;2022-12-05T17:07:48;14.35;;;11.50;;
22713;SDS011;11524;50.846;4.326;2022-12-05T17:10:14;17.33;;;12.63;;
22713;SDS011;11524;50.846;4.326;2022-12-05T17:12:40;18.15;;;13.40;;
22713;SDS011;11524;50.846;4.326;2022-12-05T17:15:16;17.23;;;13.25;;
22713;SDS011;11524;50.846;4.326;2022-12-05T17:17:43;16.90;;;12.90;;
22713;SDS011;11524;50.846;4.326;2022-12-05T17:20:09;15.52;;;12.88;;
22713;SDS011;11524;50.846;4.326;2022-12-05T17:22:36;16.90;;;12.80;;
22713;SDS011;11524;50.846;4.326;2022-12-05T17:25:03;15.35;;;12.73;;
22713;SDS011;11524;50.846;4.326;2022-12-05T17:27:55;16.80;;;13.63;;
22713;SDS011;11524;50.846;4.326;2022-12-05T17:30:21;19.25;;;12.43;;
22713;SDS011;11524;50.846;4.326;2022-12-05T17:32:47;16.67;;;11.75;;
22713;SDS011;11524;50.846;4.326;2022-12-05T17:35:16;16.50;;;12.00;;
22713;SDS011;11524;50.846;4.326;2022-12-05T17:37:43;18.52;;;13.48;;
22713;SDS011;11524;50.846;4.326;2022-12-05T17:40:09;15.68;;;12.00;;
22713;SDS011;11524;50.846;4.326;2022-12-05T17:42:35;17.83;;;12.52;;
22713;SDS011;11524;50.846;4.326;2022-12-05T17:45:01;18.77;;;13.55;;
22713;SDS011;11524;50.846;4.326;2022-12-05T17:47:27;18.02;;;13.57;;